createdAt,value
2023-01-25T00:00:30.097Z,95.59
2023-01-25T00:01:30.091Z,95.95
2023-01-25T00:02:30.193Z,95.74
2023-01-25T00:03:30.132Z,95.32
2023-01-25T00:04:30.064Z,95.32
2023-01-25T00:05:30.065Z,95.01
2023-01-25T00:06:30.047Z,95.21
2023-01-25T00:07:30.039Z,95.43
2023-01-25T00:08:30.040Z,95.43
2023-01-25T00:09:30.011Z,95.11
2023-01-25T00:10:29.998Z,95.21
2023-01-25T00:11:29.997Z,95.32
2023-01-25T00:12:29.983Z,95.11
2023-01-25T00:13:29.994Z,95.21
2023-01-25T00:14:29.955Z,95.32
2023-01-25T00:15:29.946Z,95.21
2023-01-25T00:16:30.058Z,95.21
2023-01-25T00:17:29.932Z,95.74
2023-01-25T00:18:29.997Z,96.68
2023-01-25T00:19:29.913Z,96.68
2023-01-25T00:20:29.898Z,96.58
2023-01-25T00:21:29.889Z,96.78
2023-01-25T00:22:29.889Z,96.78
2023-01-25T00:23:29.898Z,96.47
2023-01-25T00:24:29.864Z,95.74
2023-01-25T00:25:29.849Z,95.43
2023-01-25T00:26:29.832Z,95.43
2023-01-25T00:27:29.826Z,95.84
2023-01-25T00:28:29.855Z,96.05
2023-01-25T00:29:29.807Z,96.16
2023-01-25T00:30:29.792Z,96.37
2023-01-25T00:31:29.983Z,96.37
2023-01-25T00:32:29.865Z,95.74
2023-01-25T00:33:29.776Z,95.64
2023-01-25T00:34:29.866Z,95.95
2023-01-25T00:35:29.746Z,96.26
2023-01-25T00:36:29.735Z,96.05
2023-01-25T00:37:29.731Z,96.16
2023-01-25T00:38:29.731Z,95.74
2023-01-25T00:39:29.711Z,95.84
2023-01-25T00:40:29.697Z,96.16
2023-01-25T00:41:29.685Z,95.95
2023-01-25T00:42:29.669Z,95.64
2023-01-25T00:43:29.686Z,96.16
2023-01-25T00:44:29.652Z,96.47
2023-01-25T00:45:29.644Z,96.37
2023-01-25T00:46:29.631Z,96.47
2023-01-25T00:47:29.625Z,96.47
2023-01-25T00:48:29.748Z,96.58
2023-01-25T00:49:29.603Z,96.37
2023-01-25T00:50:29.597Z,96.37
2023-01-25T00:51:29.582Z,96.51
2023-01-25T00:52:29.571Z,96.26
2023-01-25T00:53:29.584Z,96.20
2023-01-25T00:54:29.548Z,96.26
2023-01-25T00:55:29.545Z,96.16
2023-01-25T00:56:29.529Z,96.26
2023-01-25T00:57:29.529Z,96.10
2023-01-25T00:58:29.527Z,96.62
2023-01-25T00:59:29.500Z,96.62
2023-01-25T01:00:29.486Z,97.04
2023-01-25T01:01:29.518Z,96.58
2023-01-25T01:02:29.469Z,96.83
2023-01-25T01:03:29.483Z,96.94
2023-01-25T01:04:29.509Z,96.72
2023-01-25T01:05:29.449Z,96.51
2023-01-25T01:06:29.430Z,96.20
2023-01-25T01:07:29.423Z,96.10
2023-01-25T01:08:29.423Z,96.10
2023-01-25T01:09:29.405Z,96.31
2023-01-25T01:10:29.389Z,96.10
2023-01-25T01:11:29.383Z,95.89
2023-01-25T01:12:29.368Z,95.78
2023-01-25T01:13:29.588Z,95.78
2023-01-25T01:14:29.346Z,95.78
2023-01-25T01:15:29.347Z,95.78
2023-01-25T01:16:29.394Z,95.89
2023-01-25T01:17:29.338Z,96.10
2023-01-25T01:18:29.319Z,96.72
2023-01-25T01:19:29.300Z,96.83
2023-01-25T01:20:29.284Z,96.62
2023-01-25T01:21:29.285Z,96.51
2023-01-25T01:22:29.265Z,96.83
2023-01-25T01:23:29.310Z,96.83
2023-01-25T01:24:29.328Z,96.94
2023-01-25T01:25:29.240Z,96.83
2023-01-25T01:26:29.222Z,96.72
2023-01-25T01:27:29.216Z,96.94
2023-01-25T01:28:29.221Z,96.83
2023-01-25T01:29:29.196Z,96.72
2023-01-25T01:30:29.186Z,97.04
2023-01-25T01:31:29.322Z,97.04
2023-01-25T01:32:29.285Z,96.51
2023-01-25T01:33:29.248Z,96.10
2023-01-25T01:34:29.146Z,96.10
2023-01-25T01:35:29.138Z,96.10
2023-01-25T01:36:29.240Z,95.99
2023-01-25T01:37:29.117Z,96.10
2023-01-25T01:38:29.119Z,96.41
2023-01-25T01:39:29.101Z,96.62
2023-01-25T01:40:29.082Z,96.41
2023-01-25T01:41:29.081Z,96.72
2023-01-25T01:42:29.062Z,96.94
2023-01-25T01:43:29.070Z,97.04
2023-01-25T01:44:29.044Z,96.62
2023-01-25T01:45:29.036Z,96.62
2023-01-25T01:46:29.044Z,96.62
2023-01-25T01:47:29.017Z,96.51
2023-01-25T01:48:29.021Z,96.41
2023-01-25T01:49:28.999Z,96.20
2023-01-25T01:50:28.990Z,96.20
2023-01-25T01:51:28.977Z,96.31
2023-01-25T01:52:28.968Z,96.31
2023-01-25T01:53:28.954Z,96.20
2023-01-25T01:54:28.966Z,96.31
2023-01-25T01:55:28.955Z,96.10
2023-01-25T01:56:28.992Z,95.99
2023-01-25T01:57:28.917Z,95.99
2023-01-25T01:58:28.907Z,95.99
2023-01-25T01:59:28.904Z,96.25
2023-01-25T02:00:28.880Z,96.31
2023-01-25T02:01:28.935Z,96.31
2023-01-25T02:02:28.987Z,96.31
2023-01-25T02:03:28.856Z,96.31
2023-01-25T02:04:28.852Z,96.31
2023-01-25T02:05:28.838Z,96.31
2023-01-25T02:06:28.833Z,96.20
2023-01-25T02:07:28.820Z,96.25
2023-01-25T02:08:28.802Z,96.10
2023-01-25T02:09:28.805Z,96.14
2023-01-25T02:10:28.786Z,96.10
2023-01-25T02:11:28.780Z,96.10
2023-01-25T02:12:28.766Z,96.14
2023-01-25T02:13:28.760Z,96.20
2023-01-25T02:14:28.757Z,96.31
2023-01-25T02:15:28.750Z,96.20
2023-01-25T02:16:28.730Z,96.31
2023-01-25T02:17:28.721Z,96.20
2023-01-25T02:18:28.701Z,96.04
2023-01-25T02:19:28.702Z,96.31
2023-01-25T02:20:28.684Z,96.45
2023-01-25T02:21:28.682Z,96.56
2023-01-25T02:22:28.660Z,96.66
2023-01-25T02:23:28.679Z,96.56
2023-01-25T02:24:28.654Z,96.45
2023-01-25T02:25:28.637Z,96.45
2023-01-25T02:26:28.620Z,96.56
2023-01-25T02:27:28.617Z,96.66
2023-01-25T02:28:28.607Z,96.56
2023-01-25T02:29:28.693Z,96.45
2023-01-25T02:30:28.591Z,96.56
2023-01-25T02:31:28.674Z,96.66
2023-01-25T02:32:28.560Z,96.66
2023-01-25T02:33:28.554Z,96.77
2023-01-25T02:34:28.555Z,96.88
2023-01-25T02:35:28.536Z,96.66
2023-01-25T02:36:28.518Z,96.66
2023-01-25T02:37:28.512Z,96.62
2023-01-25T02:38:28.497Z,96.72
2023-01-25T02:39:28.506Z,96.88
2023-01-25T02:40:28.480Z,96.88
2023-01-25T02:41:28.474Z,96.35
2023-01-25T02:42:28.455Z,96.56
2023-01-25T02:43:28.450Z,96.77
2023-01-25T02:44:28.499Z,96.77
2023-01-25T02:45:28.429Z,97.19
2023-01-25T02:46:28.453Z,97.19
2023-01-25T02:47:28.407Z,96.98
2023-01-25T02:48:28.401Z,97.08
2023-01-25T02:49:28.418Z,97.29
2023-01-25T02:50:28.393Z,97.61
2023-01-25T02:51:28.368Z,97.61
2023-01-25T02:52:28.362Z,97.50
2023-01-25T02:53:28.347Z,97.39
2023-01-25T02:54:28.356Z,97.29
2023-01-25T02:55:28.329Z,97.19
2023-01-25T02:56:28.327Z,97.29
2023-01-25T02:57:28.310Z,97.29
2023-01-25T02:58:28.314Z,97.29
2023-01-25T02:59:28.331Z,97.39
2023-01-25T03:00:28.281Z,97.29
2023-01-25T03:01:28.299Z,97.29
2023-01-25T03:02:28.315Z,97.29
2023-01-25T03:03:28.250Z,97.39
2023-01-25T03:04:28.254Z,97.29
2023-01-25T03:05:28.235Z,97.39
2023-01-25T03:06:28.234Z,97.39
2023-01-25T03:07:28.221Z,97.29
2023-01-25T03:08:28.218Z,97.19
2023-01-25T03:09:28.238Z,96.98
2023-01-25T03:10:28.182Z,96.98
2023-01-25T03:11:28.174Z,96.98
2023-01-25T03:12:28.167Z,96.98
2023-01-25T03:13:28.149Z,96.88
2023-01-25T03:14:28.189Z,97.08
2023-01-25T03:15:28.134Z,97.19
2023-01-25T03:16:28.216Z,97.19
2023-01-25T03:17:28.112Z,97.29
2023-01-25T03:18:28.108Z,97.19
2023-01-25T03:19:28.106Z,97.19
2023-01-25T03:20:28.084Z,97.19
2023-01-25T03:21:28.071Z,97.08
2023-01-25T03:22:28.077Z,96.98
2023-01-25T03:23:28.050Z,96.98
2023-01-25T03:24:28.124Z,97.08
2023-01-25T03:25:28.040Z,97.19
2023-01-25T03:26:28.027Z,97.19
2023-01-25T03:27:28.009Z,97.19
2023-01-25T03:28:28.007Z,97.08
2023-01-25T03:29:28.074Z,97.08
2023-01-25T03:30:27.988Z,97.29
2023-01-25T03:31:28.105Z,97.39
2023-01-25T03:32:28.046Z,97.29
2023-01-25T03:33:27.960Z,97.29
2023-01-25T03:34:28.159Z,97.29
2023-01-25T03:35:27.932Z,97.39
2023-01-25T03:36:28.022Z,97.19
2023-01-25T03:37:27.914Z,97.19
2023-01-25T03:38:27.915Z,97.08
2023-01-25T03:39:27.935Z,97.08
2023-01-25T03:40:27.890Z,97.19
2023-01-25T03:41:27.873Z,97.19
2023-01-25T03:42:27.871Z,97.08
2023-01-25T03:43:27.855Z,97.08
2023-01-25T03:44:27.871Z,97.19
2023-01-25T03:45:27.832Z,97.29
2023-01-25T03:46:27.836Z,97.39
2023-01-25T03:47:27.816Z,97.19
2023-01-25T03:48:27.808Z,97.08
2023-01-25T03:49:27.800Z,97.08
2023-01-25T03:50:27.796Z,96.98
2023-01-25T03:51:27.777Z,96.98
2023-01-25T03:52:27.764Z,97.08
2023-01-25T03:53:27.799Z,96.98
2023-01-25T03:54:27.757Z,96.98
2023-01-25T03:55:27.772Z,96.98
2023-01-25T03:56:27.729Z,96.98
2023-01-25T03:57:27.712Z,97.08
2023-01-25T03:58:27.710Z,96.98
2023-01-25T03:59:27.695Z,96.98
2023-01-25T04:00:27.692Z,96.98
2023-01-25T04:01:27.674Z,96.98
2023-01-25T04:02:27.779Z,97.19
2023-01-25T04:03:29.522Z,97.39
2023-01-25T04:04:27.649Z,97.61
2023-01-25T04:05:27.640Z,97.81
2023-01-25T04:06:27.638Z,98.02
2023-01-25T04:07:27.627Z,97.92
2023-01-25T04:08:27.622Z,97.92
2023-01-25T04:09:27.596Z,97.92
2023-01-25T04:10:27.598Z,97.92
2023-01-25T04:11:27.615Z,97.92
2023-01-25T04:12:27.572Z,97.92
2023-01-25T04:13:27.555Z,97.92
2023-01-25T04:14:43.364Z,98.02
2023-01-25T04:15:27.777Z,98.07
2023-01-25T04:16:27.565Z,98.13
2023-01-25T04:17:27.520Z,98.18
2023-01-25T04:18:27.513Z,98.02
2023-01-25T04:19:27.505Z,97.92
2023-01-25T04:20:27.499Z,97.86
2023-01-25T04:21:27.526Z,97.75
2023-01-25T04:22:27.474Z,97.75
2023-01-25T04:23:27.480Z,97.86
2023-01-25T04:24:27.506Z,98.07
2023-01-25T04:25:27.626Z,98.18
2023-01-25T04:26:27.442Z,98.28
2023-01-25T04:27:27.418Z,98.49
2023-01-25T04:28:27.432Z,98.59
2023-01-25T04:29:40.127Z,98.69
2023-01-25T04:30:27.408Z,98.91
2023-01-25T04:31:27.544Z,98.80
2023-01-25T04:32:27.438Z,98.69
2023-01-25T04:33:27.369Z,98.69
2023-01-25T04:34:27.354Z,98.49
2023-01-25T04:35:27.345Z,98.38
2023-01-25T04:36:27.349Z,98.28
2023-01-25T04:37:27.325Z,98.49
2023-01-25T04:38:27.316Z,98.49
2023-01-25T04:39:27.314Z,98.59
2023-01-25T04:40:27.342Z,98.59
2023-01-25T04:41:27.279Z,98.49
2023-01-25T04:42:27.279Z,98.49
2023-01-25T04:43:27.268Z,98.49
2023-01-25T04:44:27.260Z,98.59
2023-01-25T04:45:27.250Z,98.59
2023-01-25T04:46:27.238Z,98.38
2023-01-25T04:47:27.229Z,98.18
2023-01-25T04:48:27.222Z,98.07
2023-01-25T04:49:27.205Z,98.18
2023-01-25T04:50:27.210Z,98.01
2023-01-25T04:51:27.183Z,97.91
2023-01-25T04:52:27.181Z,98.01
2023-01-25T04:53:27.167Z,97.96
2023-01-25T04:54:27.160Z,98.01
2023-01-25T04:55:27.173Z,98.22
2023-01-25T04:56:27.143Z,98.43
2023-01-25T04:57:27.126Z,98.49
2023-01-25T04:58:27.117Z,98.43
2023-01-25T04:59:27.119Z,98.43
2023-01-25T05:00:27.134Z,98.43
2023-01-25T05:01:27.111Z,98.43
2023-01-25T05:02:27.107Z,98.43
2023-01-25T05:03:27.730Z,98.49
2023-01-25T05:04:27.061Z,98.69
2023-01-25T05:05:27.174Z,98.64
2023-01-25T05:06:27.040Z,98.43
2023-01-25T05:07:27.030Z,98.32
2023-01-25T05:08:27.022Z,98.43
2023-01-25T05:09:27.008Z,98.74
2023-01-25T05:10:27.021Z,98.85
2023-01-25T05:11:27.004Z,98.54
2023-01-25T05:12:26.982Z,98.32
2023-01-25T05:13:26.988Z,98.32
2023-01-25T05:14:26.960Z,98.22
2023-01-25T05:15:27.099Z,98.11
2023-01-25T05:16:26.964Z,98.32
2023-01-25T05:17:26.929Z,98.43
2023-01-25T05:18:33.128Z,98.22
2023-01-25T05:19:26.931Z,98.32
2023-01-25T05:20:26.920Z,98.32
2023-01-25T05:21:26.952Z,98.43
2023-01-25T05:22:26.886Z,98.43
2023-01-25T05:23:26.876Z,98.54
2023-01-25T05:24:26.949Z,98.43
2023-01-25T05:25:26.852Z,98.64
2023-01-25T05:26:26.867Z,98.64
2023-01-25T05:27:26.837Z,98.64
2023-01-25T05:28:26.871Z,98.74
2023-01-25T05:29:26.825Z,98.74
2023-01-25T05:30:26.827Z,98.85
2023-01-25T05:31:26.832Z,98.64
2023-01-25T05:32:26.789Z,98.74
2023-01-25T05:33:26.776Z,98.74
2023-01-25T05:34:26.769Z,98.64
2023-01-25T05:35:26.768Z,98.74
2023-01-25T05:36:26.750Z,98.74
2023-01-25T05:37:26.735Z,98.95
2023-01-25T05:38:26.731Z,98.85
2023-01-25T05:39:26.712Z,98.74
2023-01-25T05:40:26.736Z,98.85
2023-01-25T05:41:26.699Z,98.95
2023-01-25T05:42:26.714Z,98.95
2023-01-25T05:43:26.675Z,98.95
2023-01-25T05:44:26.673Z,99.05
2023-01-25T05:45:26.672Z,99.16
2023-01-25T05:46:26.712Z,99.27
2023-01-25T05:47:26.638Z,99.27
2023-01-25T05:48:26.634Z,99.16
2023-01-25T05:49:26.623Z,99.05
2023-01-25T05:50:26.627Z,99.05
2023-01-25T05:51:26.604Z,99.05
2023-01-25T05:52:26.592Z,98.85
2023-01-25T05:53:26.582Z,98.74
2023-01-25T05:54:26.576Z,98.85
2023-01-25T05:55:26.573Z,98.85
2023-01-25T05:56:26.560Z,98.85
2023-01-25T05:57:26.545Z,98.85
2023-01-25T05:58:26.535Z,98.74
2023-01-25T05:59:26.789Z,98.74
2023-01-25T06:00:26.550Z,98.64
2023-01-25T06:01:26.513Z,98.74
2023-01-25T06:02:26.628Z,98.89
2023-01-25T06:03:26.664Z,99.00
2023-01-25T06:04:26.475Z,99.00
2023-01-25T06:05:26.474Z,99.00
2023-01-25T06:06:26.458Z,98.95
2023-01-25T06:07:26.444Z,98.95
2023-01-25T06:08:26.442Z,98.89
2023-01-25T06:09:26.444Z,98.64
2023-01-25T06:10:26.433Z,98.64
2023-01-25T06:11:26.403Z,98.64
2023-01-25T06:12:27.229Z,98.54
2023-01-25T06:13:26.388Z,98.43
2023-01-25T06:14:26.382Z,98.43
2023-01-25T06:15:26.382Z,98.54
2023-01-25T06:16:26.362Z,98.43
2023-01-25T06:17:26.351Z,98.43
2023-01-25T06:18:26.349Z,98.43
2023-01-25T06:19:26.330Z,98.32
2023-01-25T06:20:26.338Z,98.43
2023-01-25T06:21:26.316Z,98.54
2023-01-25T06:22:26.305Z,98.85
2023-01-25T06:23:26.290Z,98.85
2023-01-25T06:24:26.353Z,98.64
2023-01-25T06:25:26.287Z,98.54
2023-01-25T06:26:26.263Z,98.64
2023-01-25T06:27:26.252Z,98.64
2023-01-25T06:28:26.250Z,98.74
2023-01-25T06:29:26.227Z,98.64
2023-01-25T06:30:26.244Z,98.64
2023-01-25T06:31:26.357Z,98.74
2023-01-25T06:32:26.284Z,98.85
2023-01-25T06:33:26.188Z,98.85
2023-01-25T06:34:26.202Z,98.74
2023-01-25T06:35:26.196Z,98.74
2023-01-25T06:36:26.171Z,98.74
2023-01-25T06:37:26.104Z,98.64
2023-01-25T06:38:26.151Z,98.64
2023-01-25T06:39:26.136Z,98.74
2023-01-25T06:40:26.102Z,98.85
2023-01-25T06:41:26.116Z,99.05
2023-01-25T06:42:26.122Z,98.95
2023-01-25T06:43:26.092Z,98.95
2023-01-25T06:44:26.047Z,98.85
2023-01-25T06:45:26.030Z,98.85
2023-01-25T06:46:26.073Z,98.85
2023-01-25T06:47:26.062Z,98.85
2023-01-25T06:48:26.052Z,98.74
2023-01-25T06:49:26.041Z,98.74
2023-01-25T06:50:26.025Z,98.85
2023-01-25T06:51:25.970Z,98.95
2023-01-25T06:52:25.981Z,98.95
2023-01-25T06:53:25.943Z,98.95
2023-01-25T06:54:25.940Z,99.05
2023-01-25T06:55:25.925Z,99.16
2023-01-25T06:56:25.916Z,99.05
2023-01-25T06:57:25.921Z,99.05
2023-01-25T06:58:25.898Z,99.16
2023-01-25T06:59:25.888Z,99.16
2023-01-25T07:00:25.881Z,99.16
2023-01-25T07:01:25.896Z,99.27
2023-01-25T07:02:25.883Z,99.37
2023-01-25T07:03:25.851Z,99.37
2023-01-25T07:04:25.835Z,99.27
2023-01-25T07:05:25.832Z,99.27
2023-01-25T07:06:25.815Z,99.37
2023-01-25T07:07:25.808Z,99.37
2023-01-25T07:08:25.798Z,99.27
2023-01-25T07:09:25.790Z,99.27
2023-01-25T07:10:25.774Z,99.16
2023-01-25T07:11:25.779Z,99.16
2023-01-25T07:12:25.759Z,98.95
2023-01-25T07:13:25.758Z,98.85
2023-01-25T07:14:25.741Z,98.85
2023-01-25T07:15:25.736Z,98.95
2023-01-25T07:16:25.721Z,98.95
2023-01-25T07:17:25.712Z,98.95
2023-01-25T07:18:25.709Z,98.85
2023-01-25T07:19:25.696Z,98.85
2023-01-25T07:20:25.685Z,98.85
2023-01-25T07:21:25.682Z,98.95
2023-01-25T07:22:25.676Z,98.95
2023-01-25T07:23:25.672Z,98.74
2023-01-25T07:24:25.781Z,98.74
2023-01-25T07:25:25.642Z,98.85
2023-01-25T07:26:25.632Z,98.74
2023-01-25T07:27:25.618Z,98.64
2023-01-25T07:28:25.630Z,98.64
2023-01-25T07:29:25.595Z,98.64
2023-01-25T07:30:25.581Z,98.64
2023-01-25T07:31:25.647Z,98.64
2023-01-25T07:32:25.576Z,98.54
2023-01-25T07:33:25.559Z,98.32
2023-01-25T07:34:25.545Z,98.32
2023-01-25T07:35:25.550Z,98.32
2023-01-25T07:36:25.555Z,98.32
2023-01-25T07:37:25.532Z,98.22
2023-01-25T07:38:25.509Z,98.32
2023-01-25T07:39:25.522Z,98.32
2023-01-25T07:40:25.499Z,98.22
2023-01-25T07:41:25.541Z,98.32
2023-01-25T07:42:25.467Z,98.43
2023-01-25T07:43:25.472Z,98.32
2023-01-25T07:44:25.453Z,98.43
2023-01-25T07:45:25.440Z,98.43
2023-01-25T07:46:25.462Z,98.43
2023-01-25T07:47:25.421Z,98.32
2023-01-25T07:48:25.409Z,98.32
2023-01-25T07:49:25.402Z,98.54
2023-01-25T07:50:25.386Z,98.43
2023-01-25T07:51:25.618Z,98.05
2023-01-25T07:52:25.368Z,98.05
2023-01-25T07:53:25.363Z,98.05
2023-01-25T07:54:25.358Z,97.95
2023-01-25T07:55:25.346Z,98.05
2023-01-25T07:56:25.358Z,98.05
2023-01-25T07:57:25.328Z,98.26
2023-01-25T07:58:25.313Z,98.37
2023-01-25T07:59:25.308Z,98.26
2023-01-25T08:00:25.304Z,98.47
2023-01-25T08:01:25.496Z,98.47
2023-01-25T08:02:25.279Z,98.26
2023-01-25T08:03:25.279Z,98.16
2023-01-25T08:04:25.258Z,98.05
2023-01-25T08:05:25.255Z,97.85
2023-01-25T08:06:25.260Z,97.63
2023-01-25T08:07:25.238Z,97.53
2023-01-25T08:08:25.216Z,97.74
2023-01-25T08:09:25.220Z,97.95
2023-01-25T08:10:25.228Z,98.05
2023-01-25T08:11:25.211Z,98.16
2023-01-25T08:12:25.180Z,98.37
2023-01-25T08:13:25.172Z,98.47
2023-01-25T08:14:25.169Z,98.16
2023-01-25T08:15:25.153Z,97.95
2023-01-25T08:16:25.134Z,97.95
2023-01-25T08:17:25.137Z,97.74
2023-01-25T08:18:25.117Z,97.68
2023-01-25T08:19:25.121Z,97.74
2023-01-25T08:20:25.139Z,97.78
2023-01-25T08:21:25.118Z,97.85
2023-01-25T08:22:25.079Z,97.74
2023-01-25T08:23:25.076Z,97.74
2023-01-25T08:24:25.657Z,97.74
2023-01-25T08:25:25.059Z,97.63
2023-01-25T08:26:25.064Z,97.42
2023-01-25T08:27:25.034Z,97.00
2023-01-25T08:28:25.020Z,97.22
2023-01-25T08:29:25.016Z,97.22
2023-01-25T08:30:25.001Z,97.42
2023-01-25T08:31:25.141Z,97.53
2023-01-25T08:32:24.979Z,97.53
2023-01-25T08:33:24.974Z,97.63
2023-01-25T08:34:24.961Z,97.63
2023-01-25T08:35:24.966Z,97.85
2023-01-25T08:36:24.995Z,97.85
2023-01-25T08:37:24.932Z,97.85
2023-01-25T08:38:24.927Z,97.63
2023-01-25T08:39:24.918Z,97.53
2023-01-25T08:40:24.903Z,97.63
2023-01-25T08:41:24.921Z,97.63
2023-01-25T08:42:24.884Z,97.63
2023-01-25T08:43:24.895Z,97.63
2023-01-25T08:44:24.864Z,97.53
2023-01-25T08:45:24.858Z,97.63
2023-01-25T08:46:24.879Z,97.63
2023-01-25T08:47:24.846Z,97.32
2023-01-25T08:48:24.824Z,97.32
2023-01-25T08:49:24.819Z,97.53
2023-01-25T08:50:24.803Z,97.74
2023-01-25T08:51:24.812Z,97.63
2023-01-25T08:52:24.784Z,97.95
2023-01-25T08:53:24.788Z,97.95
2023-01-25T08:54:24.798Z,98.16
2023-01-25T08:55:24.761Z,98.37
2023-01-25T08:56:24.763Z,98.32
2023-01-25T08:57:24.745Z,98.01
2023-01-25T08:58:24.730Z,97.49
2023-01-25T08:59:24.740Z,97.28
2023-01-25T09:00:24.709Z,97.22
2023-01-25T09:01:24.714Z,97.32
2023-01-25T09:02:24.689Z,97.11
2023-01-25T09:03:24.734Z,97.11
2023-01-25T09:04:24.670Z,97.22
2023-01-25T09:05:24.660Z,97.32
2023-01-25T09:06:24.647Z,97.63
2023-01-25T09:07:24.651Z,97.85
2023-01-25T09:08:24.632Z,97.85
2023-01-25T09:09:24.624Z,97.95
2023-01-25T09:10:24.611Z,98.16
2023-01-25T09:11:24.604Z,98.01
2023-01-25T09:12:24.602Z,97.59
2023-01-25T09:13:24.591Z,97.59
2023-01-25T09:14:24.571Z,97.80
2023-01-25T09:15:24.567Z,97.38
2023-01-25T09:16:24.556Z,97.59
2023-01-25T09:17:24.601Z,98.22
2023-01-25T09:18:24.534Z,97.91
2023-01-25T09:19:24.533Z,98.11
2023-01-25T09:20:24.533Z,98.16
2023-01-25T09:21:24.512Z,97.74
2023-01-25T09:22:24.512Z,97.63
2023-01-25T09:23:24.488Z,98.16
2023-01-25T09:24:24.518Z,98.37
2023-01-25T09:25:24.475Z,98.16
2023-01-25T09:26:24.467Z,98.01
2023-01-25T09:27:24.505Z,97.95
2023-01-25T09:28:24.443Z,98.26
2023-01-25T09:29:24.438Z,97.85
2023-01-25T09:30:37.136Z,97.85
2023-01-25T09:31:25.638Z,97.95
2023-01-25T09:32:24.588Z,97.85
2023-01-25T09:33:24.397Z,97.63
2023-01-25T09:34:24.381Z,97.59
2023-01-25T09:35:24.376Z,97.59
2023-01-25T09:36:24.362Z,97.59
2023-01-25T09:37:24.430Z,97.69
2023-01-25T09:38:24.338Z,97.38
2023-01-25T09:39:24.337Z,97.17
2023-01-25T09:40:24.321Z,97.17
2023-01-25T09:41:24.313Z,97.28
2023-01-25T09:42:24.342Z,97.38
2023-01-25T09:43:24.298Z,97.59
2023-01-25T09:44:24.293Z,97.59
2023-01-25T09:45:24.275Z,97.59
2023-01-25T09:46:24.287Z,97.28
2023-01-25T09:47:24.280Z,97.06
2023-01-25T09:48:24.242Z,97.06
2023-01-25T09:49:24.234Z,97.06
2023-01-25T09:50:24.260Z,97.17
2023-01-25T09:51:24.221Z,96.96
2023-01-25T09:52:24.216Z,97.17
2023-01-25T09:53:24.273Z,97.17
2023-01-25T09:54:24.186Z,97.17
2023-01-25T09:55:24.179Z,97.28
2023-01-25T09:56:24.182Z,97.28
2023-01-25T09:57:24.176Z,97.17
2023-01-25T09:58:24.145Z,97.17
2023-01-25T09:59:24.168Z,97.38
2023-01-25T10:00:24.136Z,97.69
2023-01-25T10:01:37.453Z,97.80
2023-01-25T10:02:24.266Z,97.59
2023-01-25T10:03:24.100Z,97.49
2023-01-25T10:04:24.086Z,97.49
2023-01-25T10:05:24.089Z,97.59
2023-01-25T10:06:24.067Z,97.69
2023-01-25T10:07:24.102Z,97.69
2023-01-25T10:08:24.046Z,97.49
2023-01-25T10:09:24.049Z,97.49
2023-01-25T10:10:24.027Z,97.49
2023-01-25T10:11:24.025Z,97.28
2023-01-25T10:12:24.033Z,97.28
2023-01-25T10:13:24.013Z,97.49
2023-01-25T10:14:23.993Z,97.80
2023-01-25T10:15:23.990Z,97.80
2023-01-25T10:16:25.943Z,97.49
2023-01-25T10:17:23.989Z,97.59
2023-01-25T10:18:23.950Z,97.59
2023-01-25T10:19:23.943Z,97.06
2023-01-25T10:20:23.929Z,97.17
2023-01-25T10:21:23.924Z,97.59
2023-01-25T10:22:23.921Z,97.49
2023-01-25T10:23:23.905Z,97.17
2023-01-25T10:24:23.916Z,97.06
2023-01-25T10:25:23.887Z,97.49
2023-01-25T10:26:23.877Z,97.69
2023-01-25T10:27:23.906Z,97.69
2023-01-25T10:28:23.851Z,97.28
2023-01-25T10:29:23.843Z,97.13
2023-01-25T10:30:23.837Z,97.13
2023-01-25T10:31:23.928Z,97.13
2023-01-25T10:32:23.853Z,96.81
2023-01-25T10:33:23.808Z,96.08
2023-01-25T10:34:23.799Z,96.29
2023-01-25T10:35:34.864Z,96.29
2023-01-25T10:36:23.777Z,96.29
2023-01-25T10:37:23.818Z,96.33
2023-01-25T10:38:23.753Z,96.39
2023-01-25T10:39:23.744Z,96.08
2023-01-25T10:40:23.737Z,96.19
2023-01-25T10:41:23.729Z,96.39
2023-01-25T10:42:23.852Z,96.29
2023-01-25T10:43:23.719Z,95.98
2023-01-25T10:44:23.707Z,95.98
2023-01-25T10:45:23.754Z,96.29
2023-01-25T10:46:23.740Z,95.87
2023-01-25T10:47:23.699Z,95.66
2023-01-25T10:48:23.654Z,95.56
2023-01-25T10:49:23.653Z,95.66
2023-01-25T10:50:23.637Z,95.66
2023-01-25T10:51:23.634Z,95.66
2023-01-25T10:52:23.626Z,95.66
2023-01-25T10:53:23.609Z,95.98
2023-01-25T10:54:23.597Z,96.08
2023-01-25T10:55:23.591Z,96.19
2023-01-25T10:56:23.575Z,96.19
2023-01-25T10:57:23.624Z,96.19
2023-01-25T10:58:23.559Z,96.19
2023-01-25T10:59:23.576Z,96.08
2023-01-25T11:00:23.538Z,95.87
2023-01-25T11:01:24.145Z,95.98
2023-01-25T11:02:23.530Z,95.98
2023-01-25T11:03:23.513Z,95.98
2023-01-25T11:04:23.503Z,96.19
2023-01-25T11:05:23.499Z,96.19
2023-01-25T11:06:23.479Z,95.98
2023-01-25T11:07:23.528Z,95.98
2023-01-25T11:08:23.462Z,96.08
2023-01-25T11:09:23.461Z,95.98
2023-01-25T11:10:23.438Z,95.76
2023-01-25T11:11:23.439Z,95.87
2023-01-25T11:12:23.451Z,95.87
2023-01-25T11:13:23.413Z,95.87
2023-01-25T11:14:23.403Z,95.51
2023-01-25T11:15:23.393Z,95.35
2023-01-25T11:16:23.462Z,95.45
2023-01-25T11:17:23.454Z,95.66
2023-01-25T11:18:23.371Z,95.76
2023-01-25T11:19:23.357Z,96.08
2023-01-25T11:20:23.345Z,95.98
2023-01-25T11:21:23.383Z,95.66
2023-01-25T11:22:23.346Z,95.56
2023-01-25T11:23:23.319Z,95.56
2023-01-25T11:24:23.363Z,95.56
2023-01-25T11:25:23.319Z,95.76
2023-01-25T11:26:23.305Z,95.76
2023-01-25T11:27:23.278Z,95.66
2023-01-25T11:28:23.280Z,95.76
2023-01-25T11:29:25.415Z,96.19
2023-01-25T11:30:23.264Z,96.50
2023-01-25T11:31:23.369Z,96.50
2023-01-25T11:32:23.226Z,96.65
2023-01-25T11:33:23.216Z,96.86
2023-01-25T11:34:23.209Z,96.96
2023-01-25T11:35:23.191Z,97.38
2023-01-25T11:36:23.218Z,97.28
2023-01-25T11:37:23.212Z,96.96
2023-01-25T11:38:23.181Z,96.86
2023-01-25T11:39:23.383Z,96.44
2023-01-25T11:40:23.155Z,96.65
2023-01-25T11:41:23.133Z,96.65
2023-01-25T11:42:23.136Z,96.86
2023-01-25T11:43:23.141Z,97.28
2023-01-25T11:44:23.107Z,97.55
2023-01-25T11:45:23.096Z,97.69
2023-01-25T11:46:23.195Z,97.75
2023-01-25T11:47:23.077Z,97.44
2023-01-25T11:48:23.089Z,97.23
2023-01-25T11:49:23.066Z,96.39
2023-01-25T11:50:23.050Z,96.50
2023-01-25T11:51:23.037Z,96.71
2023-01-25T11:52:23.065Z,96.81
2023-01-25T11:53:23.037Z,96.81
2023-01-25T11:54:23.014Z,96.66
2023-01-25T11:55:23.001Z,96.61
2023-01-25T11:56:23.007Z,96.61
2023-01-25T11:57:22.980Z,96.50
2023-01-25T11:58:22.976Z,96.56
2023-01-25T11:59:22.959Z,96.35
2023-01-25T12:00:22.956Z,96.35
2023-01-25T12:01:22.941Z,96.08
2023-01-25T12:02:22.955Z,95.87
2023-01-25T12:03:22.959Z,96.39
2023-01-25T12:04:22.915Z,96.71
2023-01-25T12:05:22.906Z,96.50
2023-01-25T12:06:22.898Z,96.08
2023-01-25T12:07:22.881Z,96.29
2023-01-25T12:08:22.888Z,96.14
2023-01-25T12:09:22.864Z,96.14
2023-01-25T12:10:22.858Z,96.04
2023-01-25T12:11:22.847Z,95.83
2023-01-25T12:12:22.848Z,95.72
2023-01-25T12:13:22.840Z,95.41
2023-01-25T12:14:22.814Z,95.51
2023-01-25T12:15:22.805Z,95.31
2023-01-25T12:16:22.831Z,95.20
2023-01-25T12:17:22.783Z,95.09
2023-01-25T12:18:22.795Z,95.31
2023-01-25T12:19:22.773Z,95.57
2023-01-25T12:20:22.758Z,95.51
2023-01-25T12:21:30.785Z,95.05
2023-01-25T12:22:22.756Z,95.20
2023-01-25T12:23:22.726Z,95.15
2023-01-25T12:24:22.773Z,94.95
2023-01-25T12:25:22.704Z,94.42
2023-01-25T12:26:22.695Z,94.11
2023-01-25T12:27:23.986Z,94.21
2023-01-25T12:28:22.708Z,94.36
2023-01-25T12:29:22.670Z,94.46
2023-01-25T12:30:22.661Z,94.46
2023-01-25T12:31:22.924Z,94.68
2023-01-25T12:32:22.652Z,94.68
2023-01-25T12:33:22.642Z,94.89
2023-01-25T12:34:22.624Z,94.78
2023-01-25T12:35:22.606Z,94.68
2023-01-25T12:36:22.602Z,94.68
2023-01-25T12:37:22.587Z,94.99
2023-01-25T12:38:22.592Z,94.99
2023-01-25T12:39:22.566Z,94.89
2023-01-25T12:40:22.583Z,94.82
2023-01-25T12:41:22.552Z,95.56
2023-01-25T12:42:22.546Z,95.98
2023-01-25T12:43:22.548Z,96.02
2023-01-25T12:44:22.521Z,96.23
2023-01-25T12:45:22.507Z,96.44
2023-01-25T12:46:22.520Z,96.65
2023-01-25T12:47:22.502Z,96.65
2023-01-25T12:48:22.498Z,96.44
2023-01-25T12:49:22.469Z,96.75
2023-01-25T12:50:22.464Z,97.17
2023-01-25T12:51:22.450Z,97.17
2023-01-25T12:52:22.672Z,97.17